Time;durP1;ratioP1;P1;durP2;ratioP2;P2;SDS_P1;SDS_P2;PMS_P1;PMS_P2;Temp;Humidity;BMP_temperature;BMP_pressure;BME280_temperature;BME280_humidity;BME280_pressure;Samples;Min_cycle;Max_cycle;Signal;HPM_P1;HPM_P2
2024/02/18 00:00:44;;;;;;;;;;;15.10;71.10;;;;;;5022265;28;81760;-41
2024/02/18 00:03:09;;;;;;;;;;;15.00;70.50;;;;;;5022042;28;82708;-41
2024/02/18 00:05:35;;;;;;;;;;;15.00;70.60;;;;;;5006527;28;83056;-40
2024/02/18 00:08:01;;;;;;;;;;;15.00;71.10;;;;;;5022140;28;83021;-41
2024/02/18 00:10:27;;;;;;;;;;;14.90;70.50;;;;;;5019395;28;82532;-41
2024/02/18 00:12:53;;;;;;;;;;;14.90;70.50;;;;;;5026727;28;82624;-41
2024/02/18 00:15:18;;;;;;;;;;;14.90;70.50;;;;;;5022066;28;82453;-41
2024/02/18 00:17:44;;;;;;;;;;;14.80;70.50;;;;;;5019281;28;82013;-41
2024/02/18 00:20:15;;;;;;;;;;;14.80;70.50;;;;;;5026322;28;82107;-41
2024/02/18 00:22:41;;;;;;;;;;;14.80;70.50;;;;;;5020419;27;82739;-41
2024/02/18 00:25:06;;;;;;;;;;;14.70;70.50;;;;;;5022176;28;81933;-40
2024/02/18 00:27:32;;;;;;;;;;;14.70;70.50;;;;;;5017073;28;82813;-41
2024/02/18 00:29:58;;;;;;;;;;;14.70;70.50;;;;;;5017230;28;83351;-41
2024/02/18 00:32:24;;;;;;;;;;;14.60;70.50;;;;;;5021900;28;81995;-41
2024/02/18 00:34:50;;;;;;;;;;;14.60;70.50;;;;;;5028003;28;81819;-41
2024/02/18 00:37:17;;;;;;;;;;;14.50;70.40;;;;;;5019057;28;82016;-41
2024/02/18 00:39:43;;;;;;;;;;;14.50;70.50;;;;;;5019312;28;82589;-41
2024/02/18 00:42:10;;;;;;;;;;;14.50;70.50;;;;;;5018144;28;82347;-41
2024/02/18 00:44:36;;;;;;;;;;;14.50;70.50;;;;;;5024438;28;82051;-41
2024/02/18 00:47:01;;;;;;;;;;;14.40;70.50;;;;;;5017066;28;81841;-41
2024/02/18 00:49:27;;;;;;;;;;;14.40;70.50;;;;;;5021009;28;82284;-41
2024/02/18 00:51:52;;;;;;;;;;;14.40;70.50;;;;;;5021533;28;82561;-42
2024/02/18 00:54:18;;;;;;;;;;;14.30;70.50;;;;;;5020722;28;83086;-40
2024/02/18 00:56:46;;;;;;;;;;;14.30;70.50;;;;;;5019244;28;81980;-41
2024/02/18 00:59:12;;;;;;;;;;;14.20;70.40;;;;;;5017337;28;82022;-41
2024/02/18 01:01:38;;;;;;;;;;;14.20;70.40;;;;;;5018757;28;82218;-41
2024/02/18 01:04:03;;;;;;;;;;;14.20;70.50;;;;;;5023018;28;81919;-41
2024/02/18 01:06:29;;;;;;;;;;;14.20;70.50;;;;;;5023434;28;82486;-41
2024/02/18 01:08:54;;;;;;;;;;;14.10;70.40;;;;;;5027713;28;82583;-41
2024/02/18 01:11:20;;;;;;;;;;;14.10;70.40;;;;;;5020122;28;81284;-41
2024/02/18 01:13:46;;;;;;;;;;;14.10;70.50;;;;;;5018374;28;82194;-41
2024/02/18 01:16:11;;;;;;;;;;;14.00;70.40;;;;;;5022399;28;82059;-41
2024/02/18 01:18:40;;;;;;;;;;;14.00;70.40;;;;;;5017086;28;82683;-41
2024/02/18 01:21:06;;;;;;;;;;;14.00;70.50;;;;;;5027355;28;82913;-41
2024/02/18 01:23:32;;;;;;;;;;;13.90;70.40;;;;;;5015103;28;82243;-41
2024/02/18 01:25:58;;;;;;;;;;;13.90;70.40;;;;;;5016968;28;81995;-42
2024/02/18 01:28:25;;;;;;;;;;;13.90;70.40;;;;;;5020919;28;83520;-41
2024/02/18 01:30:53;;;;;;;;;;;13.90;70.50;;;;;;5020136;28;82116;-41
2024/02/18 01:33:20;;;;;;;;;;;13.80;70.40;;;;;;5017707;28;82854;-41
2024/02/18 01:35:46;;;;;;;;;;;13.80;71.10;;;;;;5016928;28;82004;-41
2024/02/18 01:38:11;;;;;;;;;;;13.80;70.40;;;;;;5022922;28;81878;-40
2024/02/18 01:40:37;;;;;;;;;;;13.70;70.40;;;;;;5017436;28;82771;-41
2024/02/18 01:43:03;;;;;;;;;;;13.70;70.40;;;;;;5021087;28;83145;-41
2024/02/18 01:45:28;;;;;;;;;;;13.70;70.40;;;;;;5017082;28;82582;-41
2024/02/18 01:47:55;;;;;;;;;;;13.70;70.50;;;;;;5021674;28;82716;-41
2024/02/18 01:50:21;;;;;;;;;;;13.60;70.40;;;;;;5014127;28;82037;-42
2024/02/18 01:52:49;;;;;;;;;;;13.60;70.40;;;;;;5019344;28;81797;-41
2024/02/18 01:55:15;;;;;;;;;;;13.60;70.40;;;;;;5015799;28;82537;-41
2024/02/18 01:57:41;;;;;;;;;;;13.50;70.40;;;;;;5017112;28;82887;-41
2024/02/18 02:00:12;;;;;;;;;;;13.50;70.40;;;;;;5025148;28;82828;-41
2024/02/18 02:02:38;;;;;;;;;;;13.50;70.40;;;;;;5017874;28;82055;-41
2024/02/18 02:05:06;;;;;;;;;;;13.40;70.40;;;;;;5014477;28;81877;-41
2024/02/18 02:07:32;;;;;;;;;;;13.40;70.40;;;;;;5019897;28;84564;-41
2024/02/18 02:09:57;;;;;;;;;;;13.30;70.30;;;;;;5020983;28;82002;-41
2024/02/18 02:12:23;;;;;;;;;;;13.30;70.40;;;;;;5023452;28;83029;-42
2024/02/18 02:14:49;;;;;;;;;;;13.30;70.30;;;;;;5021260;28;82314;-41
2024/02/18 02:17:14;;;;;;;;;;;13.30;70.40;;;;;;5018821;28;81941;-40
2024/02/18 02:19:40;;;;;;;;;;;13.20;70.30;;;;;;5014814;28;82982;-41
2024/02/18 02:22:06;;;;;;;;;;;13.20;70.40;;;;;;5020869;28;81927;-41
2024/02/18 02:24:31;;;;;;;;;;;13.20;70.40;;;;;;5018109;28;81867;-41
2024/02/18 02:26:59;;;;;;;;;;;13.10;70.30;;;;;;5021582;28;82247;-41
2024/02/18 02:29:25;;;;;;;;;;;13.10;70.30;;;;;;5017308;28;81984;-41
2024/02/18 02:31:51;;;;;;;;;;;13.10;70.40;;;;;;5017071;28;82892;-41
2024/02/18 02:34:17;;;;;;;;;;;13.00;70.30;;;;;;5020126;28;83429;-41
2024/02/18 02:36:43;;;;;;;;;;;13.00;70.30;;;;;;5023496;28;81841;-41
2024/02/18 02:39:11;;;;;;;;;;;13.00;70.30;;;;;;5021250;28;82836;-41
2024/02/18 02:41:37;;;;;;;;;;;13.00;70.40;;;;;;5025321;28;82672;-41
2024/02/18 02:44:03;;;;;;;;;;;12.90;70.30;;;;;;5019897;28;82420;-41
2024/02/18 02:46:29;;;;;;;;;;;12.90;70.40;;;;;;5021367;28;82336;-41
2024/02/18 02:48:54;;;;;;;;;;;12.90;70.40;;;;;;5017447;28;82934;-41
2024/02/18 02:51:20;;;;;;;;;;;12.80;70.30;;;;;;5019124;28;81888;-41
2024/02/18 02:53:46;;;;;;;;;;;12.80;70.30;;;;;;5025763;28;83470;-41
2024/02/18 02:56:11;;;;;;;;;;;12.80;70.30;;;;;;5017817;28;82946;-41
2024/02/18 02:58:37;;;;;;;;;;;12.70;70.30;;;;;;5013185;28;81875;-41
2024/02/18 03:01:03;;;;;;;;;;;12.70;70.30;;;;;;5018875;28;82376;-41
2024/02/18 03:03:28;;;;;;;;;;;12.70;70.30;;;;;;5019754;28;81890;-41
2024/02/18 03:05:54;;;;;;;;;;;12.70;70.30;;;;;;5021027;28;83592;-41
2024/02/18 03:08:19;;;;;;;;;;;12.60;70.30;;;;;;5028607;28;81669;-41
2024/02/18 03:10:45;;;;;;;;;;;12.60;70.30;;;;;;5023073;28;82040;-41
2024/02/18 03:13:10;;;;;;;;;;;12.60;70.30;;;;;;5019130;28;81651;-41
2024/02/18 03:15:36;;;;;;;;;;;12.60;70.30;;;;;;5019354;28;81966;-42
2024/02/18 03:18:03;;;;;;;;;;;12.50;70.30;;;;;;5024143;28;83087;-41
2024/02/18 03:20:28;;;;;;;;;;;12.50;70.30;;;;;;5018515;28;83310;-41
2024/02/18 03:22:54;;;;;;;;;;;12.50;70.30;;;;;;5017436;28;81933;-41
2024/02/18 03:25:20;;;;;;;;;;;12.50;70.40;;;;;;5022869;28;81934;-41
2024/02/18 03:27:46;;;;;;;;;;;12.40;71.20;;;;;;5018257;28;81951;-41
2024/02/18 03:30:12;;;;;;;;;;;12.40;70.90;;;;;;5018189;28;82096;-42
2024/02/18 03:32:37;;;;;;;;;;;12.40;71.40;;;;;;5025682;28;82570;-41
2024/02/18 03:35:04;;;;;;;;;;;12.40;72.00;;;;;;5020825;28;81917;-41
2024/02/18 03:37:30;;;;;;;;;;;12.50;72.80;;;;;;5021246;28;82780;-41
2024/02/18 03:39:55;;;;;;;;;;;12.50;73.60;;;;;;5021242;28;83650;-41
2024/02/18 03:42:21;;;;;;;;;;;12.50;74.50;;;;;;5021456;28;82001;-40
2024/02/18 03:44:47;;;;;;;;;;;12.60;75.30;;;;;;5025523;28;82889;-41
2024/02/18 03:47:12;;;;;;;;;;;12.70;76.10;;;;;;5030674;28;82435;-41
2024/02/18 03:49:38;;;;;;;;;;;12.80;76.80;;;;;;5019475;28;81946;-41
2024/02/18 03:52:03;;;;;;;;;;;12.80;77.50;;;;;;5019701;28;82492;-41
2024/02/18 03:54:32;;;;;;;;;;;12.90;78.10;;;;;;5019620;28;82022;-41
2024/02/18 03:56:57;;;;;;;;;;;13.00;78.80;;;;;;5021019;28;82076;-41
2024/02/18 03:59:23;;;;;;;;;;;13.10;79.40;;;;;;5021768;28;83548;-41
2024/02/18 04:01:49;;;;;;;;;;;13.10;79.90;;;;;;5022170;28;81343;-41
2024/02/18 04:04:14;;;;;;;;;;;13.20;80.40;;;;;;5019332;28;81935;-42
2024/02/18 04:06:40;;;;;;;;;;;13.30;80.80;;;;;;5020658;28;82380;-41
2024/02/18 04:09:06;;;;;;;;;;;13.40;81.30;;;;;;5025524;28;82914;-41
2024/02/18 04:11:32;;;;;;;;;;;13.50;81.80;;;;;;5020972;28;84573;-41
2024/02/18 04:13:58;;;;;;;;;;;13.50;82.00;;;;;;5025392;28;81846;-43
2024/02/18 04:16:24;;;;;;;;;;;13.70;82.40;;;;;;5018424;28;81880;-41
2024/02/18 04:18:50;;;;;;;;;;;13.80;82.80;;;;;;5024659;28;82192;-41
2024/02/18 04:21:15;;;;;;;;;;;13.80;83.00;;;;;;5019990;28;82008;-41
2024/02/18 04:23:41;;;;;;;;;;;13.90;83.30;;;;;;5020970;28;82910;-41
2024/02/18 04:26:07;;;;;;;;;;;14.00;83.50;;;;;;5023374;28;82633;-41
2024/02/18 04:28:32;;;;;;;;;;;14.10;83.80;;;;;;5019251;28;81984;-41
2024/02/18 04:30:58;;;;;;;;;;;14.20;84.00;;;;;;5024392;28;82218;-41
2024/02/18 04:33:24;;;;;;;;;;;14.20;84.10;;;;;;5017324;28;82931;-41
2024/02/18 04:35:49;;;;;;;;;;;14.30;84.20;;;;;;5021118;28;83766;-41
2024/02/18 04:38:15;;;;;;;;;;;14.40;84.40;;;;;;5020059;28;82520;-42
2024/02/18 04:40:41;;;;;;;;;;;14.50;84.50;;;;;;5020390;28;82033;-41
2024/02/18 04:43:07;;;;;;;;;;;14.60;84.70;;;;;;5018879;28;82905;-41
2024/02/18 04:45:32;;;;;;;;;;;14.70;84.80;;;;;;5016474;28;83491;-41
2024/02/18 04:47:59;;;;;;;;;;;14.70;84.80;;;;;;5018557;28;82025;-41
2024/02/18 04:50:25;;;;;;;;;;;14.90;84.90;;;;;;5027963;28;82820;-41
2024/02/18 04:52:51;;;;;;;;;;;14.90;85.00;;;;;;5021190;28;82032;-41
2024/02/18 04:55:17;;;;;;;;;;;15.00;85.00;;;;;;5021503;28;81770;-41
2024/02/18 04:57:43;;;;;;;;;;;15.10;85.00;;;;;;5020635;28;83224;-41
2024/02/18 05:00:10;;;;;;;;;;;15.20;85.10;;;;;;5019020;28;82709;-41
2024/02/18 05:02:36;;;;;;;;;;;15.30;85.10;;;;;;5019713;28;82967;-41
2024/02/18 05:05:01;;;;;;;;;;;15.40;85.10;;;;;;5017496;28;82417;-41
2024/02/18 05:07:27;;;;;;;;;;;15.40;85.10;;;;;;5028687;28;82693;-41
2024/02/18 05:09:52;;;;;;;;;;;15.50;85.20;;;;;;5021404;28;81936;-41
2024/02/18 05:12:18;;;;;;;;;;;15.60;85.10;;;;;;5026653;28;82414;-42
2024/02/18 05:14:44;;;;;;;;;;;15.60;85.10;;;;;;5020119;28;82080;-41
2024/02/18 05:17:10;;;;;;;;;;;15.80;85.10;;;;;;5022285;28;83577;-41
2024/02/18 05:19:36;;;;;;;;;;;15.80;85.00;;;;;;5024531;28;83350;-41
2024/02/18 05:22:01;;;;;;;;;;;15.90;85.10;;;;;;5026090;28;82861;-41
2024/02/18 05:24:27;;;;;;;;;;;16.00;85.10;;;;;;5018459;28;81762;-42
2024/02/18 05:26:52;;;;;;;;;;;16.00;85.00;;;;;;5020233;28;81965;-41
2024/02/18 05:29:18;;;;;;;;;;;16.10;85.00;;;;;;5018473;28;82979;-41
2024/02/18 05:31:44;;;;;;;;;;;16.20;84.90;;;;;;5020735;28;83971;-42
2024/02/18 05:34:09;;;;;;;;;;;16.30;84.90;;;;;;5026318;28;82013;-41
2024/02/18 05:36:35;;;;;;;;;;;16.30;84.80;;;;;;5017851;28;83306;-41
2024/02/18 05:39:00;;;;;;;;;;;16.40;84.70;;;;;;5023966;28;81239;-41
2024/02/18 05:41:26;;;;;;;;;;;16.50;84.70;;;;;;5017583;28;82076;-41
2024/02/18 05:43:51;;;;;;;;;;;16.60;84.70;;;;;;5018243;28;82300;-40
2024/02/18 05:46:17;;;;;;;;;;;16.60;84.60;;;;;;5018959;28;82645;-41
2024/02/18 05:48:44;;;;;;;;;;;16.70;84.50;;;;;;5018896;28;83029;-41
2024/02/18 05:51:09;;;;;;;;;;;16.80;84.50;;;;;;5019518;28;82625;-41
2024/02/18 05:53:36;;;;;;;;;;;16.90;84.40;;;;;;5017577;28;81836;-41
2024/02/18 05:56:02;;;;;;;;;;;16.90;84.30;;;;;;5026319;28;81929;-41
2024/02/18 05:58:27;;;;;;;;;;;17.00;84.20;;;;;;5018932;28;81928;-41
2024/02/18 06:00:53;;;;;;;;;;;17.10;84.20;;;;;;5018278;28;82587;-41
2024/02/18 06:03:18;;;;;;;;;;;17.10;84.00;;;;;;5017413;28;82637;-41
2024/02/18 06:05:44;;;;;;;;;;;17.20;83.90;;;;;;5016046;28;81954;-41
2024/02/18 06:08:10;;;;;;;;;;;17.30;83.90;;;;;;5018717;28;81943;-41
2024/02/18 06:10:35;;;;;;;;;;;17.30;83.90;;;;;;5017885;28;83197;-41
2024/02/18 06:13:01;;;;;;;;;;;17.40;83.80;;;;;;5021777;28;82033;-41
2024/02/18 06:15:26;;;;;;;;;;;17.40;83.70;;;;;;5024935;28;81855;-41
2024/02/18 06:17:57;;;;;;;;;;;17.50;83.60;;;;;;5017895;28;82482;-41
2024/02/18 06:20:23;;;;;;;;;;;17.60;83.60;;;;;;5016423;28;82163;-41
2024/02/18 06:22:49;;;;;;;;;;;17.70;83.50;;;;;;5018132;28;82624;-41
2024/02/18 06:25:14;;;;;;;;;;;17.70;83.40;;;;;;5018525;28;81990;-41
2024/02/18 06:27:40;;;;;;;;;;;17.80;83.40;;;;;;5023973;28;83616;-41
2024/02/18 06:30:07;;;;;;;;;;;17.90;83.30;;;;;;5012903;28;83629;-41
2024/02/18 06:32:33;;;;;;;;;;;17.90;83.20;;;;;;5015800;28;81920;-41
2024/02/18 06:34:58;;;;;;;;;;;18.00;83.20;;;;;;5018269;28;82967;-41
2024/02/18 06:37:24;;;;;;;;;;;18.10;83.10;;;;;;5017032;28;82439;-41
2024/02/18 06:39:49;;;;;;;;;;;18.10;83.00;;;;;;5021869;28;82007;-41
2024/02/18 06:42:15;;;;;;;;;;;18.20;83.00;;;;;;5018021;28;82531;-41
2024/02/18 06:44:41;;;;;;;;;;;18.30;83.00;;;;;;5023694;28;82052;-41
2024/02/18 06:47:06;;;;;;;;;;;18.30;82.90;;;;;;5018568;28;81978;-41
2024/02/18 06:49:32;;;;;;;;;;;18.40;83.40;;;;;;5019019;28;83372;-40
2024/02/18 06:51:58;;;;;;;;;;;18.40;82.70;;;;;;5022204;28;81191;-41
2024/02/18 06:54:23;;;;;;;;;;;18.50;82.60;;;;;;5023168;28;82003;-41
2024/02/18 06:56:49;;;;;;;;;;;18.50;82.60;;;;;;5024730;28;82404;-40
2024/02/18 06:59:15;;;;;;;;;;;18.60;82.50;;;;;;5023365;28;83004;-41
2024/02/18 07:01:41;;;;;;;;;;;18.70;82.40;;;;;;5021756;28;83209;-41
2024/02/18 07:04:07;;;;;;;;;;;18.70;82.40;;;;;;5022536;28;81972;-41
2024/02/18 07:06:33;;;;;;;;;;;18.80;82.30;;;;;;5026231;28;81977;-41
2024/02/18 07:08:58;;;;;;;;;;;18.80;82.20;;;;;;5025577;28;82441;-42
2024/02/18 07:11:25;;;;;;;;;;;18.90;82.10;;;;;;5015708;28;82035;-41
2024/02/18 07:13:51;;;;;;;;;;;19.00;82.10;;;;;;5022079;28;83457;-41
2024/02/18 07:16:17;;;;;;;;;;;19.00;82.00;;;;;;5021705;28;81829;-41
2024/02/18 07:18:42;;;;;;;;;;;19.10;82.00;;;;;;5024573;28;81729;-41
2024/02/18 07:21:08;;;;;;;;;;;19.10;81.90;;;;;;5026676;28;81875;-41
2024/02/18 07:23:34;;;;;;;;;;;19.20;81.80;;;;;;5020918;28;83286;-41
2024/02/18 07:25:59;;;;;;;;;;;19.30;81.80;;;;;;5019594;28;82804;-41
2024/02/18 07:28:25;;;;;;;;;;;19.30;81.60;;;;;;5022382;28;82274;-41
2024/02/18 07:30:50;;;;;;;;;;;19.40;81.60;;;;;;5020877;27;82014;-41
2024/02/18 07:33:16;;;;;;;;;;;19.40;81.50;;;;;;5020911;28;82129;-41
2024/02/18 07:35:42;;;;;;;;;;;19.50;81.40;;;;;;5022996;28;82576;-41
2024/02/18 07:38:07;;;;;;;;;;;19.60;81.40;;;;;;5022230;28;82044;-41
2024/02/18 07:40:33;;;;;;;;;;;19.60;81.30;;;;;;5017200;28;82798;-41
2024/02/18 07:42:58;;;;;;;;;;;19.60;81.20;;;;;;5020673;28;82456;-41
2024/02/18 07:45:24;;;;;;;;;;;19.70;81.10;;;;;;5020989;28;83284;-41
2024/02/18 07:47:49;;;;;;;;;;;19.70;81.00;;;;;;5023703;28;83461;-41
2024/02/18 07:50:15;;;;;;;;;;;19.80;81.00;;;;;;5017073;28;81736;-41
2024/02/18 07:52:40;;;;;;;;;;;19.80;80.90;;;;;;5017452;28;81962;-41
2024/02/18 07:55:06;;;;;;;;;;;19.90;80.80;;;;;;5021640;28;82392;-41
2024/02/18 07:57:32;;;;;;;;;;;20.00;80.70;;;;;;5017313;28;82382;-42
2024/02/18 07:59:57;;;;;;;;;;;20.00;80.70;;;;;;5022089;28;82041;-41
2024/02/18 08:02:23;;;;;;;;;;;20.10;80.60;;;;;;5025046;28;81658;-41
2024/02/18 08:04:49;;;;;;;;;;;20.10;80.50;;;;;;5023513;28;81848;-41
2024/02/18 08:07:14;;;;;;;;;;;20.20;80.40;;;;;;5020242;28;82689;-41
2024/02/18 08:09:40;;;;;;;;;;;20.20;80.30;;;;;;5019597;28;82726;-49
2024/02/18 08:12:07;;;;;;;;;;;20.30;80.30;;;;;;5025806;28;83310;-49
2024/02/18 08:14:32;;;;;;;;;;;20.30;80.10;;;;;;5021580;28;82390;-49
2024/02/18 08:16:58;;;;;;;;;;;20.40;80.10;;;;;;5017357;28;82842;-49
2024/02/18 08:19:23;;;;;;;;;;;20.40;80.00;;;;;;5021093;28;81898;-49
2024/02/18 08:21:49;;;;;;;;;;;20.50;79.90;;;;;;5020984;28;82237;-46
2024/02/18 08:24:14;;;;;;;;;;;20.50;79.80;;;;;;5021184;28;81913;-46
2024/02/18 08:26:40;;;;;;;;;;;20.50;79.70;;;;;;5029486;28;81933;-46
2024/02/18 08:29:07;;;;;;;;;;;20.60;79.60;;;;;;5014846;28;81272;-46
2024/02/18 08:31:33;;;;;;;;;;;20.70;79.30;;;;;;5017751;28;83135;-46
2024/02/18 08:34:00;;;;;;;;;;;20.70;79.00;;;;;;5019925;28;82558;-46
2024/02/18 08:36:26;;;;;;;;;;;20.70;78.70;;;;;;5023873;28;83074;-46
2024/02/18 08:38:51;;;;;;;;;;;20.70;78.20;;;;;;5021207;28;83445;-46
2024/02/18 08:41:17;;;;;;;;;;;20.80;77.90;;;;;;5014779;28;82412;-47
2024/02/18 08:43:43;;;;;;;;;;;20.80;77.40;;;;;;5019850;28;81980;-46
2024/02/18 08:46:09;;;;;;;;;;;20.70;76.80;;;;;;5021394;28;82014;-45
2024/02/18 08:48:35;;;;;;;;;;;20.70;76.30;;;;;;5023030;28;83100;-47
2024/02/18 08:51:01;;;;;;;;;;;20.70;75.90;;;;;;5019495;28;82029;-46
2024/02/18 08:53:26;;;;;;;;;;;20.70;75.40;;;;;;5023438;28;82771;-47
2024/02/18 08:55:53;;;;;;;;;;;20.60;74.90;;;;;;5021142;28;82014;-46
2024/02/18 08:58:18;;;;;;;;;;;20.60;74.50;;;;;;5017090;28;82971;-46
2024/02/18 09:00:45;;;;;;;;;;;20.60;74.10;;;;;;5017157;28;83556;-46
2024/02/18 09:03:11;;;;;;;;;;;20.50;73.70;;;;;;5020916;28;82020;-46
2024/02/18 09:05:40;;;;;;;;;;;20.50;73.40;;;;;;5022204;28;82031;-46
2024/02/18 09:08:06;;;;;;;;;;;20.40;73.00;;;;;;5025122;28;83456;-46
2024/02/18 09:10:32;;;;;;;;;;;20.40;72.70;;;;;;5023317;28;82017;-46
2024/02/18 09:13:00;;;;;;;;;;;20.40;72.50;;;;;;5018190;28;82740;-46
2024/02/18 09:15:26;;;;;;;;;;;20.30;72.10;;;;;;5018507;28;82320;-47
2024/02/18 09:17:52;;;;;;;;;;;20.20;71.80;;;;;;5025116;28;81716;-46
2024/02/18 09:20:17;;;;;;;;;;;20.20;71.60;;;;;;5022714;28;81892;-46
2024/02/18 09:22:43;;;;;;;;;;;20.10;71.40;;;;;;5023386;28;82028;-46
2024/02/18 09:25:08;;;;;;;;;;;20.10;71.20;;;;;;5022414;28;83024;-46
2024/02/18 09:27:34;;;;;;;;;;;20.00;71.00;;;;;;5020182;28;82134;-46
2024/02/18 09:30:00;;;;;;;;;;;20.00;70.90;;;;;;5021154;28;81849;-46
2024/02/18 09:32:25;;;;;;;;;;;19.90;70.70;;;;;;5019788;28;82351;-46
2024/02/18 09:34:51;;;;;;;;;;;19.90;70.50;;;;;;5021673;28;81908;-46
2024/02/18 09:37:16;;;;;;;;;;;19.80;70.30;;;;;;5017450;28;81923;-46
2024/02/18 09:39:42;;;;;;;;;;;19.80;70.20;;;;;;5020615;28;82379;-46
2024/02/18 09:42:08;;;;;;;;;;;19.70;70.10;;;;;;5020657;28;81247;-47
2024/02/18 09:44:34;;;;;;;;;;;19.60;69.90;;;;;;5021702;28;82788;-46
2024/02/18 09:47:01;;;;;;;;;;;19.60;69.80;;;;;;5021762;28;82018;-46
2024/02/18 09:49:28;;;;;;;;;;;19.60;69.70;;;;;;5023372;28;82910;-46
2024/02/18 09:51:57;;;;;;;;;;;19.50;69.60;;;;;;5019010;28;83101;-46
2024/02/18 09:54:23;;;;;;;;;;;19.50;69.50;;;;;;5019282;28;82106;-46
2024/02/18 09:56:48;;;;;;;;;;;19.40;69.40;;;;;;5021982;28;82653;-46
2024/02/18 09:59:16;;;;;;;;;;;19.30;69.30;;;;;;5023302;28;82905;-46
2024/02/18 10:01:42;;;;;;;;;;;19.30;69.20;;;;;;5017277;28;82036;-46
2024/02/18 10:04:08;;;;;;;;;;;19.20;69.10;;;;;;5016578;28;82616;-47
2024/02/18 10:06:34;;;;;;;;;;;19.20;69.10;;;;;;5021449;28;82653;-46
2024/02/18 10:09:00;;;;;;;;;;;19.10;69.00;;;;;;5019755;28;82043;-46
2024/02/18 10:11:26;;;;;;;;;;;19.10;68.90;;;;;;5023256;28;82859;-46
2024/02/18 10:13:56;;;;;;;;;;;19.00;68.80;;;;;;5033858;28;83375;-46
2024/02/18 10:16:21;;;;;;;;;;;18.90;68.70;;;;;;5026472;28;83128;-47
2024/02/18 10:18:47;;;;;;;;;;;18.90;68.70;;;;;;5018233;28;82445;-47
2024/02/18 10:21:14;;;;;;;;;;;18.80;68.60;;;;;;5016619;28;82056;-47
2024/02/18 10:23:40;;;;;;;;;;;18.80;68.60;;;;;;5019623;28;81923;-47
2024/02/18 10:26:08;;;;;;;;;;;18.70;68.50;;;;;;5015104;28;81847;-46
2024/02/18 10:28:34;;;;;;;;;;;18.70;68.50;;;;;;5022317;28;81958;-46
2024/02/18 10:31:02;;;;;;;;;;;18.60;68.40;;;;;;5018918;28;82093;-46
2024/02/18 10:33:28;;;;;;;;;;;18.60;68.40;;;;;;5024284;28;82785;-46
2024/02/18 10:35:58;;;;;;;;;;;18.50;68.30;;;;;;5025916;28;82133;-46
2024/02/18 10:38:24;;;;;;;;;;;18.50;68.30;;;;;;5025312;28;82720;-47
2024/02/18 10:40:55;;;;;;;;;;;18.40;68.20;;;;;;5021164;28;81941;-45
2024/02/18 10:43:25;;;;;;;;;;;18.30;68.10;;;;;;5015498;28;82105;-46
2024/02/18 10:45:51;;;;;;;;;;;18.30;68.10;;;;;;5021362;28;83616;-46
2024/02/18 10:48:17;;;;;;;;;;;18.20;68.00;;;;;;5021411;28;81996;-46
2024/02/18 10:50:45;;;;;;;;;;;18.20;68.00;;;;;;5026103;28;83059;-47
2024/02/18 10:53:11;;;;;;;;;;;18.10;67.90;;;;;;5028497;28;83752;-46
2024/02/18 10:55:46;;;;;;;;;;;18.10;67.90;;;;;;5021512;28;81072;-46
2024/02/18 10:58:47;;;;;;;;;;;18.00;67.90;;;;;;5020984;28;82005;-46
2024/02/18 11:01:13;;;;;;;;;;;18.00;67.90;;;;;;4958391;28;82056;-46
2024/02/18 11:03:51;;;;;;;;;;;17.90;67.80;;;;;;5007768;28;84090;-46
2024/02/18 11:06:17;;;;;;;;;;;17.90;67.80;;;;;;5027862;28;83562;-46
2024/02/18 11:08:43;;;;;;;;;;;17.80;67.80;;;;;;5024803;28;81928;-47
2024/02/18 11:11:09;;;;;;;;;;;17.80;67.80;;;;;;5023316;28;82013;-46
2024/02/18 11:13:35;;;;;;;;;;;17.70;67.70;;;;;;5022793;28;82307;-46
2024/02/18 11:16:01;;;;;;;;;;;17.70;67.70;;;;;;5020754;28;82027;-46
2024/02/18 11:18:28;;;;;;;;;;;17.60;67.70;;;;;;5027096;28;81880;-46
2024/02/18 11:20:54;;;;;;;;;;;17.60;67.70;;;;;;5026257;28;81195;-46
2024/02/18 11:23:20;;;;;;;;;;;17.50;67.60;;;;;;5024867;28;82269;-46
2024/02/18 11:25:46;;;;;;;;;;;17.50;67.60;;;;;;5025228;28;82476;-47
2024/02/18 11:28:11;;;;;;;;;;;17.40;67.60;;;;;;5019459;28;83002;-46
2024/02/18 11:30:37;;;;;;;;;;;17.40;67.60;;;;;;5022420;28;82645;-46
2024/02/18 11:33:04;;;;;;;;;;;17.40;67.60;;;;;;5023418;28;83089;-46
2024/02/18 11:35:30;;;;;;;;;;;17.30;68.10;;;;;;5024105;28;81986;-46
2024/02/18 11:37:57;;;;;;;;;;;17.30;67.50;;;;;;5017770;28;81785;-46
2024/02/18 11:40:23;;;;;;;;;;;17.20;67.50;;;;;;5026338;28;83476;-46
2024/02/18 11:42:49;;;;;;;;;;;17.20;67.50;;;;;;5023605;28;82943;-47
2024/02/18 11:45:15;;;;;;;;;;;17.10;67.50;;;;;;5029353;28;83275;-46
2024/02/18 11:47:43;;;;;;;;;;;17.10;67.50;;;;;;5021904;28;82407;-36
2024/02/18 11:50:09;;;;;;;;;;;17.00;67.40;;;;;;5017692;28;81857;-37
2024/02/18 11:52:36;;;;;;;;;;;17.00;67.30;;;;;;5020451;28;83359;-38
2024/02/18 11:55:11;;;;;;;;;;;16.90;67.30;;;;;;5024304;28;82031;-33
2024/02/18 11:57:36;;;;;;;;;;;16.90;67.30;;;;;;5021831;28;82923;-34
2024/02/18 12:00:03;;;;;;;;;;;16.90;67.30;;;;;;5026155;28;82484;-35
2024/02/18 12:02:29;;;;;;;;;;;16.90;67.30;;;;;;5021132;28;82024;-34
2024/02/18 12:04:55;;;;;;;;;;;16.80;67.30;;;;;;5024377;28;82476;-35
2024/02/18 12:07:20;;;;;;;;;;;16.80;67.30;;;;;;5019769;28;81969;-36
2024/02/18 12:09:46;;;;;;;;;;;16.70;67.20;;;;;;5017757;28;81193;-45
2024/02/18 12:12:12;;;;;;;;;;;16.70;67.30;;;;;;5029100;28;82949;-37
2024/02/18 12:14:56;;;;;;;;;;;16.60;67.20;;;;;;5027302;28;81960;-38
2024/02/18 12:17:22;;;;;;;;;;;16.60;67.30;;;;;;5023031;28;83333;-39
2024/02/18 12:19:49;;;;;;;;;;;16.60;67.30;;;;;;5017605;28;82406;-43
2024/02/18 12:22:18;;;;;;;;;;;16.60;67.40;;;;;;5017961;28;81890;-40
2024/02/18 12:24:44;;;;;;;;;;;16.50;67.40;;;;;;5025204;28;81766;-39
2024/02/18 12:27:09;;;;;;;;;;;16.50;67.50;;;;;;5027919;28;82375;-36
2024/02/18 12:29:35;;;;;;;;;;;16.40;67.40;;;;;;5023385;28;82066;-32
2024/02/18 12:32:00;;;;;;;;;;;16.40;67.50;;;;;;5019817;28;83367;-39
2024/02/18 12:34:27;;;;;;;;;;;16.30;67.50;;;;;;5018159;28;82100;-37
2024/02/18 12:36:53;;;;;;;;;;;16.30;67.50;;;;;;5017602;28;82020;-36
2024/02/18 12:39:19;;;;;;;;;;;16.20;67.50;;;;;;5022205;28;82381;-35
2024/02/18 12:41:46;;;;;;;;;;;16.20;67.50;;;;;;5022616;28;84339;-46
2024/02/18 12:44:11;;;;;;;;;;;16.10;67.50;;;;;;5019878;28;83924;-42
2024/02/18 12:46:37;;;;;;;;;;;16.10;67.50;;;;;;5021742;28;83435;-38
2024/02/18 12:49:04;;;;;;;;;;;16.10;65.70;;;;;;5011680;28;83130;-38
2024/02/18 12:51:32;;;;;;;;;;;16.10;66.80;;;;;;5018019;28;84280;-38
2024/02/18 12:53:57;;;;;;;;;;;16.00;66.90;;;;;;5021535;28;82130;-38
2024/02/18 12:56:24;;;;;;;;;;;16.00;67.10;;;;;;5020387;28;83007;-38
2024/02/18 12:58:50;;;;;;;;;;;15.90;67.10;;;;;;5023159;28;82688;-38
2024/02/18 13:01:16;;;;;;;;;;;15.90;67.10;;;;;;5018069;28;81843;-38
2024/02/18 13:03:46;;;;;;;;;;;15.80;67.20;;;;;;5012094;28;81885;-36
2024/02/18 13:06:16;;;;;;;;;;;15.80;67.20;;;;;;5017479;28;84304;-41
2024/02/18 13:08:43;;;;;;;;;;;15.80;67.30;;;;;;5017622;28;82773;-39
2024/02/18 13:11:14;;;;;;;;;;;15.70;67.40;;;;;;5016528;28;83481;-36
2024/02/18 13:13:42;;;;;;;;;;;15.70;67.30;;;;;;5017829;28;81966;-36
2024/02/18 13:16:08;;;;;;;;;;;15.70;67.40;;;;;;5021224;28;82725;-40
2024/02/18 13:18:34;;;;;;;;;;;15.70;67.40;;;;;;5022109;28;82391;-34
2024/02/18 13:21:02;;;;;;;;;;;15.60;67.30;;;;;;5021090;28;82490;-36
2024/02/18 13:23:27;;;;;;;;;;;15.60;67.30;;;;;;5023004;28;82942;-36
2024/02/18 13:25:53;;;;;;;;;;;15.50;67.90;;;;;;5023500;28;82504;-42
2024/02/18 13:28:20;;;;;;;;;;;15.50;67.30;;;;;;5022435;28;82263;-37
2024/02/18 13:30:45;;;;;;;;;;;15.50;67.30;;;;;;5022147;28;84390;-37
2024/02/18 13:33:11;;;;;;;;;;;15.40;67.30;;;;;;5019333;28;82015;-37
2024/02/18 13:35:36;;;;;;;;;;;15.40;67.30;;;;;;5022247;27;82471;-39
2024/02/18 13:38:02;;;;;;;;;;;15.30;67.30;;;;;;5023691;28;82563;-39
2024/02/18 13:40:29;;;;;;;;;;;15.30;67.30;;;;;;5012819;28;82827;-39
2024/02/18 13:42:55;;;;;;;;;;;15.30;67.40;;;;;;5023317;28;83022;-39
2024/02/18 13:45:21;;;;;;;;;;;15.20;67.40;;;;;;5020950;28;82403;-39
2024/02/18 13:47:52;;;;;;;;;;;15.20;67.40;;;;;;5017189;28;81234;-39
2024/02/18 13:50:18;;;;;;;;;;;15.20;67.50;;;;;;5018989;28;83669;-38
2024/02/18 13:52:44;;;;;;;;;;;15.10;67.40;;;;;;5018298;28;81994;-38
2024/02/18 13:55:09;;;;;;;;;;;15.10;67.50;;;;;;5019995;28;83152;-38
2024/02/18 13:57:35;;;;;;;;;;;15.10;67.50;;;;;;5018966;28;82420;-38
2024/02/18 14:00:00;;;;;;;;;;;15.00;67.50;;;;;;5018738;28;82423;-38
2024/02/18 14:02:26;;;;;;;;;;;15.00;67.50;;;;;;5017715;28;81929;-38
2024/02/18 14:04:51;;;;;;;;;;;14.90;67.50;;;;;;5028040;28;82355;-38
2024/02/18 14:07:20;;;;;;;;;;;14.90;67.50;;;;;;5015232;28;82407;-38
2024/02/18 14:09:48;;;;;;;;;;;14.90;67.50;;;;;;5013949;28;82992;-39